sensor_id;sensor_type;location;lat;lon;timestamp;pressure;altitude;pressure_sealevel;temperature;humidity
8051;BME280;4068;42.158;24.732;2023-07-13T00:01:29;99664.78;;;24.74;100.00
8051;BME280;4068;42.158;24.732;2023-07-13T00:03:56;99667.91;;;24.77;100.00
8051;BME280;4068;42.158;24.732;2023-07-13T00:06:22;99674.59;;;24.68;100.00
8051;BME280;4068;42.158;24.732;2023-07-13T00:08:47;99643.78;;;24.49;100.00
8051;BME280;4068;42.158;24.732;2023-07-13T00:11:14;99672.16;;;24.60;100.00
8051;BME280;4068;42.158;24.732;2023-07-13T00:13:41;99666.28;;;24.63;100.00
8051;BME280;4068;42.158;24.732;2023-07-13T00:16:08;99672.75;;;24.62;100.00
8051;BME280;4068;42.158;24.732;2023-07-13T00:18:34;99662.13;;;24.67;100.00
8051;BME280;4068;42.158;24.732;2023-07-13T00:20:59;99670.03;;;24.62;100.00
8051;BME280;4068;42.158;24.732;2023-07-13T00:23:34;99658.34;;;24.55;100.00
8051;BME280;4068;42.158;24.732;2023-07-13T00:26:02;99654.81;;;24.54;100.00
8051;BME280;4068;42.158;24.732;2023-07-13T00:28:28;99634.00;;;24.41;100.00
8051;BME280;4068;42.158;24.732;2023-07-13T00:30:54;99665.88;;;24.66;100.00
8051;BME280;4068;42.158;24.732;2023-07-13T00:33:20;99652.09;;;24.68;99.61
8051;BME280;4068;42.158;24.732;2023-07-13T00:35:45;99659.38;;;24.74;99.48
8051;BME280;4068;42.158;24.732;2023-07-13T00:38:11;99652.91;;;24.75;99.15
8051;BME280;4068;42.158;24.732;2023-07-13T00:40:37;99660.44;;;24.73;99.41
8051;BME280;4068;42.158;24.732;2023-07-13T00:43:02;99645.81;;;24.74;99.62
8051;BME280;4068;42.158;24.732;2023-07-13T00:47:56;99644.53;;;24.83;97.81
8051;BME280;4068;42.158;24.732;2023-07-13T00:50:23;99647.25;;;24.76;98.44
8051;BME280;4068;42.158;24.732;2023-07-13T00:52:52;99648.31;;;24.75;96.88
8051;BME280;4068;42.158;24.732;2023-07-13T00:55:20;99648.72;;;24.79;96.02
8051;BME280;4068;42.158;24.732;2023-07-13T00:57:46;99646.22;;;24.77;95.74
8051;BME280;4068;42.158;24.732;2023-07-13T01:00:12;99619.56;;;24.61;95.30
8051;BME280;4068;42.158;24.732;2023-07-13T01:02:40;99629.53;;;24.74;95.24
8051;BME280;4068;42.158;24.732;2023-07-13T01:05:10;99637.06;;;24.78;94.75
8051;BME280;4068;42.158;24.732;2023-07-13T01:07:36;99633.94;;;24.75;93.83
8051;BME280;4068;42.158;24.732;2023-07-13T01:10:02;99637.28;;;24.70;92.49
8051;BME280;4068;42.158;24.732;2023-07-13T01:12:28;99627.03;;;24.72;92.08
8051;BME280;4068;42.158;24.732;2023-07-13T01:14:58;99637.66;;;24.80;92.05
8051;BME280;4068;42.158;24.732;2023-07-13T01:17:26;99620.59;;;24.73;92.05
8051;BME280;4068;42.158;24.732;2023-07-13T01:19:51;99644.13;;;24.79;92.78
8051;BME280;4068;42.158;24.732;2023-07-13T01:22:19;99641.66;;;24.71;93.82
8051;BME280;4068;42.158;24.732;2023-07-13T01:24:46;99643.97;;;24.61;94.83
8051;BME280;4068;42.158;24.732;2023-07-13T01:27:14;99638.56;;;24.47;95.25
8051;BME280;4068;42.158;24.732;2023-07-13T01:29:42;99619.00;;;24.32;95.38
8051;BME280;4068;42.158;24.732;2023-07-13T01:32:10;99640.25;;;24.42;95.52
8051;BME280;4068;42.158;24.732;2023-07-13T01:34:36;99635.88;;;24.34;95.99
8051;BME280;4068;42.158;24.732;2023-07-13T01:37:03;99641.53;;;24.26;97.14
8051;BME280;4068;42.158;24.732;2023-07-13T01:39:29;99628.63;;;24.08;97.43
8051;BME280;4068;42.158;24.732;2023-07-13T01:41:54;99648.63;;;24.13;97.50
8051;BME280;4068;42.158;24.732;2023-07-13T01:44:20;99645.09;;;24.13;97.68
8051;BME280;4068;42.158;24.732;2023-07-13T01:46:45;99650.94;;;24.03;98.40
8051;BME280;4068;42.158;24.732;2023-07-13T01:49:11;99618.63;;;23.82;98.91
8051;BME280;4068;42.158;24.732;2023-07-13T01:51:36;99643.44;;;23.92;99.57
8051;BME280;4068;42.158;24.732;2023-07-13T01:54:02;99641.72;;;23.84;100.00
8051;BME280;4068;42.158;24.732;2023-07-13T01:56:27;99611.53;;;23.67;100.00
8051;BME280;4068;42.158;24.732;2023-07-13T01:58:53;99648.22;;;23.90;100.00
8051;BME280;4068;42.158;24.732;2023-07-13T02:01:18;99654.66;;;23.82;100.00
8051;BME280;4068;42.158;24.732;2023-07-13T02:03:44;99651.13;;;23.82;100.00
8051;BME280;4068;42.158;24.732;2023-07-13T02:06:09;99647.75;;;23.79;100.00
8051;BME280;4068;42.158;24.732;2023-07-13T02:08:34;99657.56;;;23.81;100.00
8051;BME280;4068;42.158;24.732;2023-07-13T02:11:02;99653.59;;;23.76;100.00
8051;BME280;4068;42.158;24.732;2023-07-13T02:13:27;99660.47;;;23.79;100.00
8051;BME280;4068;42.158;24.732;2023-07-13T02:15:53;99666.72;;;23.86;100.00
8051;BME280;4068;42.158;24.732;2023-07-13T02:18:18;99645.06;;;23.79;100.00
8051;BME280;4068;42.158;24.732;2023-07-13T02:20:44;99644.66;;;23.76;100.00
8051;BME280;4068;42.158;24.732;2023-07-13T02:23:10;99643.81;;;23.69;100.00
8051;BME280;4068;42.158;24.732;2023-07-13T02:25:36;99639.41;;;23.61;100.00
8051;BME280;4068;42.158;24.732;2023-07-13T02:28:01;99671.72;;;23.69;100.00
8051;BME280;4068;42.158;24.732;2023-07-13T02:30:27;99675.88;;;23.65;100.00
8051;BME280;4068;42.158;24.732;2023-07-13T02:32:55;99662.53;;;23.64;100.00
8051;BME280;4068;42.158;24.732;2023-07-13T02:35:21;99678.16;;;23.61;100.00
8051;BME280;4068;42.158;24.732;2023-07-13T02:37:46;99672.31;;;23.58;100.00
8051;BME280;4068;42.158;24.732;2023-07-13T02:40:12;99671.03;;;23.47;100.00
8051;BME280;4068;42.158;24.732;2023-07-13T02:42:37;99675.41;;;23.48;100.00
8051;BME280;4068;42.158;24.732;2023-07-13T02:45:03;99646.03;;;23.32;100.00
8051;BME280;4068;42.158;24.732;2023-07-13T02:47:29;99676.84;;;23.44;100.00
8051;BME280;4068;42.158;24.732;2023-07-13T02:49:54;99667.09;;;23.43;100.00
8051;BME280;4068;42.158;24.732;2023-07-13T02:52:20;99687.09;;;23.49;100.00
8051;BME280;4068;42.158;24.732;2023-07-13T02:54:45;99683.50;;;23.41;100.00
8051;BME280;4068;42.158;24.732;2023-07-13T02:57:11;99688.31;;;23.39;100.00
8051;BME280;4068;42.158;24.732;2023-07-13T02:59:36;99687.28;;;23.40;100.00
8051;BME280;4068;42.158;24.732;2023-07-13T03:02:02;99665.41;;;23.42;100.00
8051;BME280;4068;42.158;24.732;2023-07-13T03:04:28;99691.66;;;23.48;100.00
8051;BME280;4068;42.158;24.732;2023-07-13T03:06:54;99663.50;;;23.36;100.00
8051;BME280;4068;42.158;24.732;2023-07-13T03:09:23;99694.38;;;23.55;100.00
8051;BME280;4068;42.158;24.732;2023-07-13T03:11:49;99689.19;;;23.53;100.00
8051;BME280;4068;42.158;24.732;2023-07-13T03:14:17;99667.09;;;23.43;100.00
8051;BME280;4068;42.158;24.732;2023-07-13T03:16:42;99687.75;;;23.71;100.00
8051;BME280;4068;42.158;24.732;2023-07-13T03:19:07;99695.03;;;23.77;100.00
8051;BME280;4068;42.158;24.732;2023-07-13T03:21:33;99675.47;;;23.82;100.00
8051;BME280;4068;42.158;24.732;2023-07-13T03:23:58;99665.91;;;23.79;99.81
8051;BME280;4068;42.158;24.732;2023-07-13T03:26:24;99674.28;;;23.98;97.49
8051;BME280;4068;42.158;24.732;2023-07-13T03:28:49;99678.03;;;24.10;97.27
8051;BME280;4068;42.158;24.732;2023-07-13T03:31:26;99669.66;;;24.25;96.57
8051;BME280;4068;42.158;24.732;2023-07-13T03:33:54;99667.94;;;24.71;93.47
8051;BME280;4068;42.158;24.732;2023-07-13T03:36:22;99679.41;;;25.31;90.29
8051;BME280;4068;42.158;24.732;2023-07-13T03:38:55;99678.19;;;25.91;86.36
8051;BME280;4068;42.158;24.732;2023-07-13T03:41:21;99675.84;;;26.45;83.85
8051;BME280;4068;42.158;24.732;2023-07-13T03:43:47;99665.16;;;26.69;81.11
8051;BME280;4068;42.158;24.732;2023-07-13T03:46:14;99659.88;;;26.93;80.24
8051;BME280;4068;42.158;24.732;2023-07-13T03:48:43;99676.41;;;27.10;79.91
8051;BME280;4068;42.158;24.732;2023-07-13T03:51:10;99676.75;;;27.13;79.53
8051;BME280;4068;42.158;24.732;2023-07-13T03:53:41;99680.31;;;27.14;79.28
8051;BME280;4068;42.158;24.732;2023-07-13T03:56:08;99662.34;;;26.94;79.28
8051;BME280;4068;42.158;24.732;2023-07-13T03:58:35;99673.53;;;26.86;80.69
8051;BME280;4068;42.158;24.732;2023-07-13T04:01:03;99692.81;;;27.03;80.63
8051;BME280;4068;42.158;24.732;2023-07-13T04:03:29;99696.34;;;27.03;80.57
8051;BME280;4068;42.158;24.732;2023-07-13T04:05:57;99690.16;;;26.78;81.51
8051;BME280;4068;42.158;24.732;2023-07-13T04:08:26;99668.59;;;26.58;83.44
8051;BME280;4068;42.158;24.732;2023-07-13T04:10:51;99678.22;;;26.97;83.53
8051;BME280;4068;42.158;24.732;2023-07-13T04:13:17;99665.97;;;27.07;80.88
8051;BME280;4068;42.158;24.732;2023-07-13T04:15:42;99686.97;;;27.36;79.88
8051;BME280;4068;42.158;24.732;2023-07-13T04:18:08;99682.13;;;27.38;79.67
8051;BME280;4068;42.158;24.732;2023-07-13T04:20:34;99690.78;;;27.47;79.61
8051;BME280;4068;42.158;24.732;2023-07-13T04:22:59;99675.25;;;27.17;80.30
8051;BME280;4068;42.158;24.732;2023-07-13T04:25:25;99700.63;;;27.30;80.58
8051;BME280;4068;42.158;24.732;2023-07-13T04:27:50;99703.84;;;27.08;81.97
8051;BME280;4068;42.158;24.732;2023-07-13T04:30:16;99699.53;;;26.82;84.52
8051;BME280;4068;42.158;24.732;2023-07-13T04:32:41;99686.78;;;26.82;84.05
8051;BME280;4068;42.158;24.732;2023-07-13T04:35:07;99699.97;;;26.97;83.91
8051;BME280;4068;42.158;24.732;2023-07-13T04:37:32;99705.72;;;27.08;83.96
8051;BME280;4068;42.158;24.732;2023-07-13T04:39:58;99698.69;;;27.00;82.74
8051;BME280;4068;42.158;24.732;2023-07-13T04:42:23;99690.63;;;26.93;83.17
8051;BME280;4068;42.158;24.732;2023-07-13T04:44:50;99687.81;;;27.00;81.64
8051;BME280;4068;42.158;24.732;2023-07-13T04:47:16;99708.91;;;27.04;82.04
8051;BME280;4068;42.158;24.732;2023-07-13T04:49:41;99700.16;;;27.02;82.11
8051;BME280;4068;42.158;24.732;2023-07-13T04:52:07;99710.75;;;26.92;82.72
8051;BME280;4068;42.158;24.732;2023-07-13T04:54:34;99699.16;;;26.78;84.06
8051;BME280;4068;42.158;24.732;2023-07-13T04:56:59;99690.38;;;26.76;84.56
8051;BME280;4068;42.158;24.732;2023-07-13T04:59:25;99710.09;;;27.09;82.28
8051;BME280;4068;42.158;24.732;2023-07-13T05:01:50;99706.69;;;27.13;81.12
8051;BME280;4068;42.158;24.732;2023-07-13T05:04:16;99720.31;;;26.95;82.96
8051;BME280;4068;42.158;24.732;2023-07-13T05:06:42;99710.94;;;27.09;83.40
8051;BME280;4068;42.158;24.732;2023-07-13T05:09:07;99715.44;;;27.34;81.71
8051;BME280;4068;42.158;24.732;2023-07-13T05:11:33;99695.78;;;27.32;79.99
8051;BME280;4068;42.158;24.732;2023-07-13T05:13:58;99718.81;;;27.66;78.52
8051;BME280;4068;42.158;24.732;2023-07-13T05:16:24;99715.88;;;27.80;76.93
8051;BME280;4068;42.158;24.732;2023-07-13T05:18:49;99692.00;;;27.63;76.99
8051;BME280;4068;42.158;24.732;2023-07-13T05:21:15;99722.63;;;27.89;77.42
8051;BME280;4068;42.158;24.732;2023-07-13T05:23:40;99723.84;;;27.93;77.50
8051;BME280;4068;42.158;24.732;2023-07-13T05:26:09;99724.78;;;27.87;78.52
8051;BME280;4068;42.158;24.732;2023-07-13T05:28:34;99730.19;;;28.05;77.60
8051;BME280;4068;42.158;24.732;2023-07-13T05:31:00;99723.22;;;28.21;76.99
8051;BME280;4068;42.158;24.732;2023-07-13T05:33:25;99702.00;;;28.23;73.89
8051;BME280;4068;42.158;24.732;2023-07-13T05:35:51;99717.53;;;28.35;73.75
8051;BME280;4068;42.158;24.732;2023-07-13T05:38:17;99706.63;;;28.47;72.10
8051;BME280;4068;42.158;24.732;2023-07-13T05:40:43;99728.56;;;28.52;73.06
8051;BME280;4068;42.158;24.732;2023-07-13T05:43:09;99700.34;;;28.34;73.30
8051;BME280;4068;42.158;24.732;2023-07-13T05:45:35;99723.81;;;28.59;72.94
8051;BME280;4068;42.158;24.732;2023-07-13T05:48:00;99714.84;;;28.70;71.72
8051;BME280;4068;42.158;24.732;2023-07-13T05:50:26;99705.31;;;28.73;70.89
8051;BME280;4068;42.158;24.732;2023-07-13T05:52:52;99722.88;;;28.89;70.43
8051;BME280;4068;42.158;24.732;2023-07-13T05:55:17;99711.47;;;28.92;70.22
8051;BME280;4068;42.158;24.732;2023-07-13T05:57:43;99726.19;;;28.91;71.98
8051;BME280;4068;42.158;24.732;2023-07-13T06:00:09;99721.84;;;29.19;71.08
8051;BME280;4068;42.158;24.732;2023-07-13T06:02:35;99695.41;;;29.07;70.02
8051;BME280;4068;42.158;24.732;2023-07-13T06:05:01;99718.97;;;29.37;67.63
8051;BME280;4068;42.158;24.732;2023-07-13T06:07:26;99728.28;;;29.53;66.72
8051;BME280;4068;42.158;24.732;2023-07-13T06:09:51;99727.88;;;29.61;66.34
8051;BME280;4068;42.158;24.732;2023-07-13T06:12:17;99732.13;;;29.69;66.34
8051;BME280;4068;42.158;24.732;2023-07-13T06:14:42;99736.41;;;29.94;66.07
8051;BME280;4068;42.158;24.732;2023-07-13T06:17:08;99737.16;;;30.06;62.77
8051;BME280;4068;42.158;24.732;2023-07-13T06:19:34;99729.47;;;30.20;62.99
8051;BME280;4068;42.158;24.732;2023-07-13T06:22:00;99728.22;;;30.28;61.62
8051;BME280;4068;42.158;24.732;2023-07-13T06:24:26;99719.25;;;30.33;60.59
8051;BME280;4068;42.158;24.732;2023-07-13T06:26:51;99698.28;;;30.38;60.42
8051;BME280;4068;42.158;24.732;2023-07-13T06:29:16;99703.50;;;30.57;59.71
8051;BME280;4068;42.158;24.732;2023-07-13T06:31:42;99720.53;;;30.81;59.22
8051;BME280;4068;42.158;24.732;2023-07-13T06:34:08;99718.44;;;30.88;57.69
8051;BME280;4068;42.158;24.732;2023-07-13T06:36:33;99721.91;;;31.01;56.94
8051;BME280;4068;42.158;24.732;2023-07-13T06:38:59;99713.38;;;30.97;57.40
8051;BME280;4068;42.158;24.732;2023-07-13T06:41:24;99716.19;;;31.02;57.96
8051;BME280;4068;42.158;24.732;2023-07-13T06:43:52;99705.69;;;31.16;56.75
8051;BME280;4068;42.158;24.732;2023-07-13T06:46:17;99705.50;;;31.23;56.18
8051;BME280;4068;42.158;24.732;2023-07-13T06:48:43;99695.44;;;31.06;57.93
8051;BME280;4068;42.158;24.732;2023-07-13T06:51:08;99692.16;;;31.09;58.23
8051;BME280;4068;42.158;24.732;2023-07-13T06:53:34;99702.88;;;31.38;56.69
8051;BME280;4068;42.158;24.732;2023-07-13T06:55:59;99698.50;;;31.59;54.18
8051;BME280;4068;42.158;24.732;2023-07-13T06:58:25;99700.75;;;31.67;54.39
8051;BME280;4068;42.158;24.732;2023-07-13T07:00:52;99702.25;;;31.80;54.64
8051;BME280;4068;42.158;24.732;2023-07-13T07:03:17;99707.34;;;31.99;54.24
8051;BME280;4068;42.158;24.732;2023-07-13T07:05:43;99706.00;;;32.01;52.56
8051;BME280;4068;42.158;24.732;2023-07-13T07:08:08;99682.63;;;31.94;52.39
8051;BME280;4068;42.158;24.732;2023-07-13T07:10:34;99711.56;;;32.12;51.11
8051;BME280;4068;42.158;24.732;2023-07-13T07:13:00;99706.16;;;32.17;50.95
8051;BME280;4068;42.158;24.732;2023-07-13T07:15:26;99711.41;;;32.24;50.54
8051;BME280;4068;42.158;24.732;2023-07-13T07:17:52;99692.97;;;32.14;51.19
8051;BME280;4068;42.158;24.732;2023-07-13T07:20:17;99705.22;;;32.39;49.18
8051;BME280;4068;42.158;24.732;2023-07-13T07:22:43;99704.44;;;32.48;49.92
8051;BME280;4068;42.158;24.732;2023-07-13T07:25:08;99693.75;;;32.52;49.97
8051;BME280;4068;42.158;24.732;2023-07-13T07:27:34;99691.09;;;32.62;49.10
8051;BME280;4068;42.158;24.732;2023-07-13T07:29:59;99674.06;;;32.65;49.71
8051;BME280;4068;42.158;24.732;2023-07-13T07:32:25;99700.31;;;32.94;47.99
8051;BME280;4068;42.158;24.732;2023-07-13T07:34:50;99694.56;;;32.95;47.82
8051;BME280;4068;42.158;24.732;2023-07-13T07:37:16;99694.03;;;32.98;46.98
8051;BME280;4068;42.158;24.732;2023-07-13T07:39:43;99696.75;;;32.98;46.65
8051;BME280;4068;42.158;24.732;2023-07-13T07:42:08;99690.22;;;33.10;47.01
8051;BME280;4068;42.158;24.732;2023-07-13T07:44:34;99678.22;;;33.31;45.88
8051;BME280;4068;42.158;24.732;2023-07-13T07:47:00;99689.53;;;33.55;44.50
8051;BME280;4068;42.158;24.732;2023-07-13T07:49:26;99663.09;;;33.29;44.91
8051;BME280;4068;42.158;24.732;2023-07-13T07:51:51;99691.16;;;33.62;44.84
8051;BME280;4068;42.158;24.732;2023-07-13T07:54:17;99683.78;;;33.78;45.61
8051;BME280;4068;42.158;24.732;2023-07-13T07:56:42;99691.50;;;33.91;45.26
8051;BME280;4068;42.158;24.732;2023-07-13T07:59:08;99681.88;;;33.99;44.94
8051;BME280;4068;42.158;24.732;2023-07-13T08:01:34;99688.44;;;34.13;44.19
8051;BME280;4068;42.158;24.732;2023-07-13T08:03:59;99664.25;;;34.15;44.21
8051;BME280;4068;42.158;24.732;2023-07-13T08:06:25;99683.53;;;34.31;44.92
8051;BME280;4068;42.158;24.732;2023-07-13T08:08:50;99665.88;;;34.21;45.36
8051;BME280;4068;42.158;24.732;2023-07-13T08:11:16;99675.25;;;34.46;44.06
8051;BME280;4068;42.158;24.732;2023-07-13T08:13:42;99674.41;;;34.46;44.07
8051;BME280;4068;42.158;24.732;2023-07-13T08:16:07;99675.81;;;34.38;44.25
8051;BME280;4068;42.158;24.732;2023-07-13T08:18:33;99668.84;;;34.66;43.09
8051;BME280;4068;42.158;24.732;2023-07-13T08:20:58;99669.38;;;34.68;43.32
8051;BME280;4068;42.158;24.732;2023-07-13T08:23:27;99647.59;;;34.77;43.67
8051;BME280;4068;42.158;24.732;2023-07-13T08:25:53;99654.94;;;35.02;41.25
8051;BME280;4068;42.158;24.732;2023-07-13T08:28:22;99656.72;;;35.28;41.51
8051;BME280;4068;42.158;24.732;2023-07-13T08:30:48;99659.47;;;35.28;41.49
8051;BME280;4068;42.158;24.732;2023-07-13T08:33:15;99655.06;;;35.26;42.44
8051;BME280;4068;42.158;24.732;2023-07-13T08:35:41;99653.94;;;35.38;43.02
8051;BME280;4068;42.158;24.732;2023-07-13T08:38:06;99657.06;;;35.60;42.63
8051;BME280;4068;42.158;24.732;2023-07-13T08:40:33;99655.53;;;35.78;41.44
8051;BME280;4068;42.158;24.732;2023-07-13T08:42:59;99650.94;;;36.03;40.87
8051;BME280;4068;42.158;24.732;2023-07-13T08:45:38;99643.19;;;36.05;40.17
8051;BME280;4068;42.158;24.732;2023-07-13T08:48:15;99649.44;;;36.16;38.86
8051;BME280;4068;42.158;24.732;2023-07-13T08:50:55;99621.25;;;36.19;38.81
8051;BME280;4068;42.158;24.732;2023-07-13T08:53:24;99634.44;;;36.52;36.96
8051;BME280;4068;42.158;24.732;2023-07-13T08:55:57;99632.81;;;36.70;35.99
8051;BME280;4068;42.158;24.732;2023-07-13T08:58:25;99634.16;;;36.96;35.41
8051;BME280;4068;42.158;24.732;2023-07-13T09:01:22;99643.34;;;37.11;33.16
8051;BME280;4068;42.158;24.732;2023-07-13T09:06:28;99635.13;;;36.62;34.70
8051;BME280;4068;42.158;24.732;2023-07-13T09:09:10;99626.53;;;36.64;35.00
8051;BME280;4068;42.158;24.732;2023-07-13T09:16:58;99592.88;;;37.24;34.02
8051;BME280;4068;42.158;24.732;2023-07-13T09:19:28;99635.38;;;37.47;32.65
8051;BME280;4068;42.158;24.732;2023-07-13T09:21:55;99617.38;;;37.50;32.40
8051;BME280;4068;42.158;24.732;2023-07-13T09:24:38;99612.47;;;37.61;32.52
8051;BME280;4068;42.158;24.732;2023-07-13T09:27:15;99597.47;;;37.48;32.71
8051;BME280;4068;42.158;24.732;2023-07-13T09:29:47;99609.38;;;37.29;33.09
8051;BME280;4068;42.158;24.732;2023-07-13T09:32:18;99597.97;;;37.36;33.06
8051;BME280;4068;42.158;24.732;2023-07-13T09:34:55;99597.47;;;37.67;31.90
8051;BME280;4068;42.158;24.732;2023-07-13T09:37:23;99591.50;;;37.60;31.63
8051;BME280;4068;42.158;24.732;2023-07-13T09:39:54;99582.66;;;37.58;31.64
8051;BME280;4068;42.158;24.732;2023-07-13T09:42:22;99577.19;;;37.39;31.86
8051;BME280;4068;42.158;24.732;2023-07-13T09:47:22;99569.03;;;37.80;31.80
8051;BME280;4068;42.158;24.732;2023-07-13T09:49:54;99572.63;;;38.09;31.63
8051;BME280;4068;42.158;24.732;2023-07-13T09:52:20;99560.16;;;38.25;32.09
8051;BME280;4068;42.158;24.732;2023-07-13T09:54:49;99555.53;;;38.48;31.40
8051;BME280;4068;42.158;24.732;2023-07-13T09:57:19;99560.75;;;38.64;31.18
8051;BME280;4068;42.158;24.732;2023-07-13T09:59:50;99562.66;;;38.63;29.39
8051;BME280;4068;42.158;24.732;2023-07-13T10:02:25;99550.66;;;38.82;29.86
8051;BME280;4068;42.158;24.732;2023-07-13T10:05:01;99553.34;;;38.73;29.26
8051;BME280;4068;42.158;24.732;2023-07-13T10:07:29;99526.75;;;38.72;29.66
8051;BME280;4068;42.158;24.732;2023-07-13T10:09:56;99538.50;;;38.92;29.46
8051;BME280;4068;42.158;24.732;2023-07-13T10:12:22;99532.50;;;39.12;29.26
8051;BME280;4068;42.158;24.732;2023-07-13T10:14:54;99535.38;;;39.07;28.64
8051;BME280;4068;42.158;24.732;2023-07-13T10:17:30;99538.25;;;39.16;27.50
8051;BME280;4068;42.158;24.732;2023-07-13T10:19:59;99532.06;;;39.19;27.04
8051;BME280;4068;42.158;24.732;2023-07-13T10:25:21;99525.56;;;39.24;27.27
8051;BME280;4068;42.158;24.732;2023-07-13T10:27:50;99538.91;;;39.44;27.21
8051;BME280;4068;42.158;24.732;2023-07-13T10:32:43;99533.81;;;39.60;26.49
8051;BME280;4068;42.158;24.732;2023-07-13T10:35:12;99523.44;;;39.52;26.55
8051;BME280;4068;42.158;24.732;2023-07-13T10:37:57;99512.13;;;39.40;26.87
8051;BME280;4068;42.158;24.732;2023-07-13T10:40:32;99493.50;;;39.31;27.62
8051;BME280;4068;42.158;24.732;2023-07-13T10:43:01;99507.63;;;39.75;27.03
8051;BME280;4068;42.158;24.732;2023-07-13T10:45:32;99506.44;;;39.67;26.99
8051;BME280;4068;42.158;24.732;2023-07-13T10:48:00;99500.47;;;39.83;26.56
8051;BME280;4068;42.158;24.732;2023-07-13T10:50:28;99487.06;;;39.85;26.50
8051;BME280;4068;42.158;24.732;2023-07-13T10:53:01;99502.47;;;40.00;26.24
8051;BME280;4068;42.158;24.732;2023-07-13T10:58:44;99492.31;;;39.86;27.15
8051;BME280;4068;42.158;24.732;2023-07-13T11:01:17;99473.56;;;39.92;25.64
8051;BME280;4068;42.158;24.732;2023-07-13T11:06:12;99476.53;;;40.04;25.60
8051;BME280;4068;42.158;24.732;2023-07-13T11:11:37;99473.31;;;40.20;24.83
8051;BME280;4068;42.158;24.732;2023-07-13T11:14:25;99469.09;;;40.40;24.97
8051;BME280;4068;42.158;24.732;2023-07-13T11:16:50;99475.19;;;40.51;24.72
8051;BME280;4068;42.158;24.732;2023-07-13T11:27:33;99454.25;;;40.71;24.66
8051;BME280;4068;42.158;24.732;2023-07-13T11:35:34;99456.41;;;40.65;24.71
8051;BME280;4068;42.158;24.732;2023-07-13T11:38:02;99446.44;;;40.55;24.85
8051;BME280;4068;42.158;24.732;2023-07-13T11:40:29;99453.63;;;40.57;25.07
8051;BME280;4068;42.158;24.732;2023-07-13T11:43:00;99444.28;;;40.79;24.50
8051;BME280;4068;42.158;24.732;2023-07-13T11:45:26;99448.19;;;40.69;24.56
8051;BME280;4068;42.158;24.732;2023-07-13T11:47:53;99450.16;;;40.86;24.52
8051;BME280;4068;42.158;24.732;2023-07-13T11:50:22;99430.88;;;40.81;24.05
8051;BME280;4068;42.158;24.732;2023-07-13T11:52:50;99442.47;;;41.09;23.63
8051;BME280;4068;42.158;24.732;2023-07-13T11:55:18;99450.16;;;41.12;24.08
8051;BME280;4068;42.158;24.732;2023-07-13T11:57:59;99449.28;;;41.38;23.54
8051;BME280;4068;42.158;24.732;2023-07-13T12:00:29;99441.88;;;41.51;23.48
8051;BME280;4068;42.158;24.732;2023-07-13T12:02:57;99435.63;;;41.54;22.82
8051;BME280;4068;42.158;24.732;2023-07-13T12:05:24;99408.53;;;41.42;23.38
8051;BME280;4068;42.158;24.732;2023-07-13T12:07:51;99427.41;;;41.66;23.53
8051;BME280;4068;42.158;24.732;2023-07-13T12:10:29;99423.13;;;41.78;23.60
8051;BME280;4068;42.158;24.732;2023-07-13T12:12:56;99424.56;;;41.75;23.62
8051;BME280;4068;42.158;24.732;2023-07-13T12:15:23;99418.34;;;41.78;22.97
8051;BME280;4068;42.158;24.732;2023-07-13T12:17:50;99420.47;;;41.72;23.27
8051;BME280;4068;42.158;24.732;2023-07-13T12:20:37;99407.50;;;41.85;23.15
8051;BME280;4068;42.158;24.732;2023-07-13T12:23:05;99398.63;;;41.92;23.40
8051;BME280;4068;42.158;24.732;2023-07-13T12:25:31;99400.50;;;42.00;23.00
8051;BME280;4068;42.158;24.732;2023-07-13T12:27:57;99381.78;;;42.09;22.77
8051;BME280;4068;42.158;24.732;2023-07-13T12:30:32;99399.28;;;42.19;22.75
8051;BME280;4068;42.158;24.732;2023-07-13T12:33:11;99391.72;;;42.19;23.16
8051;BME280;4068;42.158;24.732;2023-07-13T12:35:44;99388.06;;;42.28;23.21
8051;BME280;4068;42.158;24.732;2023-07-13T12:38:11;99389.91;;;42.23;23.02
8051;BME280;4068;42.158;24.732;2023-07-13T12:40:37;99387.31;;;42.39;23.37
8051;BME280;4068;42.158;24.732;2023-07-13T12:43:03;99370.53;;;42.27;22.76
8051;BME280;4068;42.158;24.732;2023-07-13T12:45:30;99367.78;;;41.97;22.84
8051;BME280;4068;42.158;24.732;2023-07-13T12:48:12;99374.69;;;42.21;22.96
8051;BME280;4068;42.158;24.732;2023-07-13T12:50:41;99343.69;;;42.22;22.99
8051;BME280;4068;42.158;24.732;2023-07-13T12:53:20;99370.13;;;42.37;23.07
8051;BME280;4068;42.158;24.732;2023-07-13T12:55:50;99348.16;;;42.36;23.36
8051;BME280;4068;42.158;24.732;2023-07-13T12:58:32;99366.31;;;42.63;23.39
8051;BME280;4068;42.158;24.732;2023-07-13T13:01:02;99357.50;;;42.86;23.05
8051;BME280;4068;42.158;24.732;2023-07-13T13:03:34;99366.81;;;42.78;22.99
8051;BME280;4068;42.158;24.732;2023-07-13T13:06:21;99352.28;;;42.84;22.60
8051;BME280;4068;42.158;24.732;2023-07-13T13:08:53;99342.78;;;42.85;22.63
8051;BME280;4068;42.158;24.732;2023-07-13T13:11:20;99334.06;;;42.74;22.18
8051;BME280;4068;42.158;24.732;2023-07-13T13:13:46;99356.00;;;42.76;22.85
8051;BME280;4068;42.158;24.732;2023-07-13T13:16:22;99350.28;;;42.72;22.89
8051;BME280;4068;42.158;24.732;2023-07-13T13:18:51;99338.94;;;42.78;22.57
8051;BME280;4068;42.158;24.732;2023-07-13T13:21:17;99340.69;;;42.82;22.75
8051;BME280;4068;42.158;24.732;2023-07-13T13:23:43;99344.50;;;42.78;22.37
8051;BME280;4068;42.158;24.732;2023-07-13T13:26:14;99342.66;;;42.82;21.09
8051;BME280;4068;42.158;24.732;2023-07-13T13:28:41;99333.81;;;42.80;21.76
8051;BME280;4068;42.158;24.732;2023-07-13T13:31:08;99329.88;;;42.81;21.53
8051;BME280;4068;42.158;24.732;2023-07-13T13:33:38;99319.56;;;42.60;20.05
8051;BME280;4068;42.158;24.732;2023-07-13T13:36:19;99321.75;;;42.42;19.96
8051;BME280;4068;42.158;24.732;2023-07-13T13:38:45;99331.94;;;41.96;22.35
8051;BME280;4068;42.158;24.732;2023-07-13T13:41:13;99321.91;;;42.03;24.03
8051;BME280;4068;42.158;24.732;2023-07-13T13:43:43;99322.78;;;42.16;23.92
8051;BME280;4068;42.158;24.732;2023-07-13T13:46:24;99317.53;;;42.36;24.04
8051;BME280;4068;42.158;24.732;2023-07-13T13:48:50;99311.88;;;42.45;23.57
8051;BME280;4068;42.158;24.732;2023-07-13T13:51:20;99317.22;;;42.50;23.51
8051;BME280;4068;42.158;24.732;2023-07-13T13:53:47;99307.31;;;42.28;23.86